Hersey, MI (49639)

11:45 AM EDT on September 28, 2016 (GMT -0400)
Hersey Township | | Change Station

Elev 1004 ft 43.82 °N, 85.41 °W | Updated 38 seconds ago

Scattered Clouds
Scattered Clouds
57.9 °F
Feels Like 57.9 °F
N
6.0
Wind Variable Wind from NE
Gusts 10.0 mph

Today
High -- | Low -- °F
--% Chance of Precip.
Yesterday
High -- | Low -- °F
Precip. -- in
Pressure 29.95 in
Visibility 10.0 miles
Clouds Scattered Clouds 9000 ft
Dew Point 52 °F
Humidity 81%
Rainfall 0.05 in
Snow Depth Not available.
7:36 AM 7:27 PM
Waning Crescent, 5% visible
METAR KRQB 281535Z AUTO 06006KT 10SM SCT090 14/11 A2995 RMK AO2 T01400105
Pressure 29.95 in
Visibility 10.0 miles
Clouds Scattered Clouds 9000 ft
Dew Point 52 °F
Humidity 81%
Rainfall 0.05 in
Snow Depth Not available.
7:36 AM 7:27 PM
Waning Crescent, 5% visible
METAR KRQB 281535Z AUTO 06006KT 10SM SCT090 14/11 A2995 RMK AO2 T01400105

10-Day Weather Forecast

Almanac

Astronomy

Sep. 28, 2016 Rise Set
Actual Time
Civil Twilight
Nautical Twilight
Astronomical Twilight
Moon
Length of Visible Light
Length of Day
Tomorrow will be .
, % of the Moon is Illuminated

Today's Extremes

State Highs State Lows

Community

WunderPhotos

Upload Photos

1,942,268 photos uploaded!

WunderBlog® & News

Nearby

Air Quality

  Air Quality AQ Index Pollutant
Not available.

Snow Depth

Station Depth Elevation

Earthquake Activity

City Distance Mag. Time & Date
Minimum magnitude displayed is 2.5.

Coastal Water Temperatures

Place Temperature

Stations

Nearby Weather Stations

Station Location Temp. Windchill Dew Point Humidity Wind Precip. Elev Updated Type
                   

Watches & Warnings

There are currently no watches in effect.